Time;durP1;ratioP1;P1;durP2;ratioP2;P2;SDS_P1;SDS_P2;PMS_P1;PMS_P2;Temp;Humidity;BMP_temperature;BMP_pressure;BME280_temperature;BME280_humidity;BME280_pressure;Samples;Min_cycle;Max_cycle;Signal;HPM_P1;HPM_P2
2022/04/21 00:01:03;;;;;;;10.43;4.13;;;;;;;10.88;87.23;100063.09;4978324;28;20023;-85
2022/04/21 00:03:51;;;;;;;9.65;4.88;;;;;;;10.66;89.73;100063.91;4978648;28;20043;-85
2022/04/21 00:06:17;;;;;;;10.73;4.07;;;;;;;10.96;88.09;100069.34;4979209;28;20050;-87
2022/04/21 00:08:46;;;;;;;8.40;4.28;;;;;;;10.87;88.50;100066.75;4924289;29;20043;-86
2022/04/21 00:11:11;;;;;;;14.15;4.53;;;;;;;10.82;89.24;100066.44;4972625;28;20051;-86
2022/04/21 00:13:42;;;;;;;12.48;4.47;;;;;;;10.72;89.87;100065.84;4955247;29;20130;-85
2022/04/21 00:16:10;;;;;;;12.60;4.68;;;;;;;10.75;90.30;100060.19;4974137;28;20095;-86
2022/04/21 00:18:36;;;;;;;9.10;4.50;;;;;;;10.96;88.63;100058.75;4946283;29;20031;-86
2022/04/21 00:21:02;;;;;;;9.80;4.60;;;;;;;10.90;88.87;100047.81;4962842;29;20118;-86
2022/04/21 00:23:29;;;;;;;9.00;4.72;;;;;;;10.82;90.26;100061.16;4945960;29;20043;-86
2022/04/21 00:26:00;;;;;;;8.35;4.32;;;;;;;10.77;90.72;100060.84;4962799;29;20090;-83
2022/04/21 00:28:28;;;;;;;9.18;4.55;;;;;;;10.94;90.39;100071.38;4958520;29;20047;-84
2022/04/21 00:30:55;;;;;;;7.60;4.18;;;;;;;10.75;91.85;100060.19;4965502;28;20039;-83
2022/04/21 00:33:24;;;;;;;9.98;4.97;;;;;;;10.64;92.80;100057.13;4962385;29;20102;-84
2022/04/21 00:35:52;;;;;;;8.95;4.72;;;;;;;10.60;93.59;100061.13;4965632;29;20035;-85
2022/04/21 00:38:21;;;;;;;13.02;5.15;;;;;;;10.69;93.51;100050.28;4951105;29;20035;-84
2022/04/21 00:40:49;;;;;;;9.45;5.00;;;;;;;10.66;94.81;100050.66;4967413;29;20090;-82
2022/04/21 00:43:21;;;;;;;11.23;4.97;;;;;;;10.78;94.58;100054.53;4966804;29;20032;-86
2022/04/21 00:45:56;;;;;;;10.60;5.40;;;;;;;10.86;94.82;100048.38;4968825;29;20043;-82
2022/04/21 00:48:24;;;;;;;8.73;4.50;;;;;;;10.71;95.74;100052.75;4971628;29;20046;-86
2022/04/21 00:50:55;;;;;;;13.45;5.30;;;;;;;10.50;97.45;100050.72;4967218;29;20137;-81
2022/04/21 00:53:21;;;;;;;13.63;4.63;;;;;;;10.42;98.73;100044.63;4966399;29;20118;-85
2022/04/21 00:55:53;;;;;;;10.85;4.72;;;;;;;10.40;99.44;100044.81;4964812;28;20039;-82
2022/04/21 00:58:18;;;;;;;10.15;5.13;;;;;;;10.61;98.12;100042.38;4964829;29;20039;-84
2022/04/21 01:00:44;;;;;;;11.93;4.55;;;;;;;10.56;98.43;100033.31;4964060;29;20052;-81
2022/04/21 01:03:20;;;;;;;11.18;5.22;;;;;;;10.66;98.63;100037.41;4963765;29;20099;-84
2022/04/21 01:05:49;;;;;;;9.15;4.60;;;;;;;10.72;98.12;100043.81;4948971;29;20479;-83
2022/04/21 01:08:15;;;;;;;12.63;5.28;;;;;;;10.53;99.13;100039.78;4946639;29;20032;-82
2022/04/21 01:10:45;;;;;;;12.45;4.78;;;;;;;10.59;99.74;100039.09;4930380;29;20090;-82
2022/04/21 01:13:17;;;;;;;17.35;5.22;;;;;;;10.61;99.47;100039.72;4947518;29;20110;-85
2022/04/21 01:15:44;;;;;;;12.32;4.88;;;;;;;10.52;100.00;100032.81;4963569;29;20038;-84
2022/04/21 01:18:15;;;;;;;13.05;4.97;;;;;;;10.46;100.00;100041.47;4930919;29;20111;-81
2022/04/21 01:20:41;;;;;;;16.60;5.38;;;;;;;10.35;100.00;100031.25;4946809;29;20035;-84
2022/04/21 01:23:09;;;;;;;17.30;5.60;;;;;;;10.30;100.00;100025.66;4963175;29;20139;-85
2022/04/21 01:25:42;;;;;;;13.45;5.30;;;;;;;10.38;100.00;100031.72;4962246;29;20039;-84
2022/04/21 01:28:11;;;;;;;8.93;5.47;;;;;;;10.32;100.00;100027.13;4963773;29;20051;-83
2022/04/21 01:30:38;;;;;;;21.63;6.25;;;;;;;10.29;100.00;100024.81;4963878;29;20037;-83
2022/04/21 01:33:09;;;;;;;14.10;5.68;;;;;;;10.46;100.00;100022.94;4949927;29;20161;-84
2022/04/21 01:35:35;;;;;;;14.77;5.55;;;;;;;10.34;100.00;100024.31;4949065;29;20040;-82
2022/04/21 01:43:43;;;;;;;15.68;5.75;;;;;;;10.56;100.00;100017.41;4962665;28;20035;-84
2022/04/21 01:46:12;;;;;;;16.05;6.28;;;;;;;10.58;100.00;100010.94;4963715;29;20051;-84
2022/04/21 01:48:38;;;;;;;12.93;6.18;;;;;;;10.33;100.00;100012.06;4962212;29;20050;-83
2022/04/21 01:51:04;;;;;;;13.32;6.80;;;;;;;10.32;100.00;100005.09;4962972;29;20035;-84
2022/04/21 01:53:29;;;;;;;9.70;6.07;;;;;;;10.33;100.00;100002.31;4965061;29;20043;-82
2022/04/21 01:55:55;;;;;;;15.75;6.53;;;;;;;10.34;100.00;100009.22;4961169;29;20114;-83
2022/04/21 01:58:21;;;;;;;9.18;6.00;;;;;;;10.54;100.00;100006.97;4964016;29;20035;-85
2022/04/21 02:00:46;;;;;;;15.52;6.82;;;;;;;10.40;100.00;100004.25;4963376;29;20047;-85
2022/04/21 02:03:12;;;;;;;11.32;6.80;;;;;;;10.50;100.00;100005.69;4946618;29;20062;-82
2022/04/21 02:05:44;;;;;;;10.57;6.35;;;;;;;10.42;100.00;100012.84;4963881;29;20066;-84
2022/04/21 02:08:09;;;;;;;15.03;6.53;;;;;;;10.35;100.00;100012.72;4972661;29;20027;-82
2022/04/21 02:10:42;;;;;;;13.32;6.57;;;;;;;10.34;100.00;100014.53;4972272;29;20043;-83
2022/04/21 02:13:14;;;;;;;12.93;7.13;;;;;;;10.32;100.00;100005.94;4951359;29;20035;-83
2022/04/21 02:15:46;;;;;;;13.57;7.28;;;;;;;10.32;100.00;100010.41;4949397;29;20074;-85
2022/04/21 02:18:14;;;;;;;9.38;6.78;;;;;;;10.32;100.00;100010.41;4962624;29;20127;-84
2022/04/21 02:20:40;;;;;;;14.38;6.80;;;;;;;10.35;100.00;100010.06;4945114;29;20427;-84
2022/04/21 02:23:07;;;;;;;11.77;6.85;;;;;;;10.07;100.00;100000.91;4946948;29;20035;-84
2022/04/21 02:25:32;;;;;;;10.75;7.18;;;;;;;10.21;100.00;100000.19;4962319;29;20090;-81
2022/04/21 02:27:59;;;;;;;18.38;7.80;;;;;;;10.21;100.00;100008.97;4965557;29;20039;-81
2022/04/21 02:30:24;;;;;;;10.45;6.43;;;;;;;10.35;100.00;99994.16;4965923;29;20043;-81
2022/04/21 02:32:50;;;;;;;17.30;7.80;;;;;;;10.26;100.00;99996.03;4962689;29;20114;-82
2022/04/21 02:35:18;;;;;;;14.73;7.30;;;;;;;10.20;100.00;99995.91;4963149;29;20058;-82
2022/04/21 02:37:46;;;;;;;13.18;7.15;;;;;;;10.12;100.00;99987.94;4960845;29;20042;-83
2022/04/21 02:40:13;;;;;;;15.40;8.18;;;;;;;10.29;100.00;99989.56;4962587;29;20063;-83
2022/04/21 02:42:39;;;;;;;12.20;7.70;;;;;;;10.04;100.00;99980.84;4961775;29;20046;-86
2022/04/21 02:45:10;;;;;;;20.92;8.10;;;;;;;10.29;100.00;99978.97;4961723;29;20058;-87
2022/04/21 02:47:37;;;;;;;13.10;7.90;;;;;;;10.14;100.00;99975.41;4960706;29;20099;-84
2022/04/21 02:50:04;;;;;;;13.15;8.02;;;;;;;10.13;100.00;99985.16;4961405;29;20039;-86
2022/04/21 02:52:31;;;;;;;16.58;8.13;;;;;;;10.05;100.00;99976.41;4930902;29;20054;-86
2022/04/21 02:57:43;;;;;;;17.08;8.65;;;;;;;10.00;100.00;99973.44;4961756;29;20039;-89
2022/04/21 03:00:09;;;;;;;11.93;8.23;;;;;;;10.04;100.00;99970.28;4962207;29;20708;-87
2022/04/21 03:02:35;;;;;;;12.98;7.90;;;;;;;10.18;100.00;99972.22;4960858;29;20099;-89
2022/04/21 03:05:00;;;;;;;14.75;8.70;;;;;;;10.25;100.00;99972.38;4961547;29;20502;-87
2022/04/21 03:07:29;;;;;;;16.23;8.00;;;;;;;10.19;100.00;99978.34;4943689;29;20513;-87
2022/04/21 03:09:55;;;;;;;16.05;8.18;;;;;;;10.29;100.00;99968.38;4961259;29;20047;-87
2022/04/21 03:12:28;;;;;;;14.05;8.32;;;;;;;10.18;100.00;99961.63;4962713;29;20104;-86
2022/04/21 03:14:55;;;;;;;14.00;8.32;;;;;;;10.19;100.00;99963.31;4961093;29;20498;-86
2022/04/21 03:17:21;;;;;;;15.90;9.10;;;;;;;9.94;100.00;99963.56;4960958;29;20106;-82
2022/04/21 03:19:50;;;;;;;18.17;9.15;;;;;;;9.99;100.00;99950.63;4943660;29;20486;-84
2022/04/21 03:25:01;;;;;;;12.95;8.73;;;;;;;9.85;100.00;99942.41;4960437;29;20061;-86
2022/04/21 03:27:48;;;;;;;16.33;9.30;;;;;;;9.84;100.00;99947.88;4962689;29;20035;-86
2022/04/21 03:30:14;;;;;;;17.80;9.18;;;;;;;9.84;100.00;99940.75;4944167;29;20057;-84
2022/04/21 03:32:40;;;;;;;15.00;9.45;;;;;;;9.99;100.00;99945.31;4959938;29;20043;-87
2022/04/21 03:35:12;;;;;;;18.90;9.60;;;;;;;9.97;100.00;99937.56;4960922;29;20047;-85
2022/04/21 03:37:40;;;;;;;13.95;8.95;;;;;;;9.88;100.00;99935.13;4959655;29;20042;-86
2022/04/21 03:40:07;;;;;;;20.08;9.98;;;;;;;9.70;100.00;99936.19;4961756;29;20031;-83
2022/04/21 03:42:32;;;;;;;16.60;9.98;;;;;;;9.66;100.00;99924.28;4959569;29;20046;-84
2022/04/21 03:44:59;;;;;;;14.52;9.90;;;;;;;9.53;100.00;99925.81;4942766;29;20047;-86
2022/04/21 03:47:25;;;;;;;19.98;10.55;;;;;;;9.53;100.00;99923.16;4958683;29;20036;-84
2022/04/21 03:49:51;;;;;;;19.40;10.85;;;;;;;9.62;100.00;99927.44;4957919;29;20035;-83
2022/04/21 03:52:22;;;;;;;20.50;9.55;;;;;;;9.73;100.00;99935.00;4960534;29;20039;-85
2022/04/21 03:54:48;;;;;;;13.63;10.02;;;;;;;9.96;100.00;99937.72;4960136;29;20070;-85
2022/04/21 03:57:14;;;;;;;19.02;10.20;;;;;;;9.78;100.00;99928.19;4943719;29;20048;-84
2022/04/21 03:59:42;;;;;;;21.65;9.82;;;;;;;9.83;100.00;99931.16;4959058;29;20050;-84
2022/04/21 04:02:08;;;;;;;16.10;10.45;;;;;;;9.84;100.00;99926.72;4960599;29;20051;-86
2022/04/21 04:04:37;;;;;;;19.80;10.07;;;;;;;9.95;100.00;99923.66;4960239;29;20089;-84
2022/04/21 04:12:38;;;;;;;16.63;10.63;;;;;;;9.92;100.00;99917.88;4953565;29;20047;-86
2022/04/21 04:15:08;;;;;;;17.30;11.68;;;;;;;9.79;100.00;99915.78;4966026;29;20035;-84
2022/04/21 04:17:34;;;;;;;17.80;11.30;;;;;;;9.68;100.00;99919.63;4975009;29;20088;-85
2022/04/21 04:20:04;;;;;;;14.95;11.10;;;;;;;9.73;100.00;99914.66;4964363;29;20046;-85
2022/04/21 04:22:35;;;;;;;17.88;11.02;;;;;;;9.77;100.00;99918.63;4963493;29;20094;-84
2022/04/21 04:25:01;;;;;;;14.98;11.20;;;;;;;9.70;100.00;99920.31;4965509;29;20095;-84
2022/04/21 04:27:29;;;;;;;20.45;11.10;;;;;;;9.76;100.00;99924.91;4947899;29;20114;-86
2022/04/21 04:30:15;;;;;;;19.63;11.90;;;;;;;9.73;100.00;99921.78;4965333;29;20035;-85
2022/04/21 04:33:22;;;;;;;19.13;11.60;;;;;;;9.72;100.00;99918.31;4956389;29;20040;-86
2022/04/21 04:35:50;;;;;;;15.75;10.95;;;;;;;9.92;100.00;99925.81;4977448;29;20019;-83
2022/04/21 04:38:19;;;;;;;22.38;11.60;;;;;;;9.85;100.00;99921.22;4982034;28;20083;-85
2022/04/21 04:40:44;;;;;;;23.42;12.07;;;;;;;9.58;100.00;99921.66;4950167;28;20027;-88
2022/04/21 04:43:10;;;;;;;14.82;11.13;;;;;;;9.77;100.00;99926.56;4977056;28;20062;-85
2022/04/21 04:48:28;;;;;;;19.10;12.85;;;;;;;9.65;100.00;99927.91;4971353;29;20065;-80
2022/04/21 04:50:54;;;;;;;;;;;;;;;9.58;100.00;99929.59;4966632;29;20043;-80
2022/04/21 04:53:23;;;;;;;22.42;11.52;;;;;;;9.74;100.00;99929.53;4963163;29;19918;-85
2022/04/21 04:55:48;;;;;;;20.13;12.95;;;;;;;9.66;100.00;99923.47;4962173;29;20042;-86
2022/04/21 04:58:14;;;;;;;21.63;12.63;;;;;;;9.72;100.00;99918.31;4962456;29;20031;-87
2022/04/21 05:00:47;;;;;;;21.17;13.50;;;;;;;9.46;100.00;99923.03;4958463;28;20529;-87
2022/04/21 05:03:19;;;;;;;18.08;13.07;;;;;;;9.47;100.00;99923.84;4929550;29;20036;-91
2022/04/21 05:05:49;;;;;;;20.08;13.32;;;;;;;9.44;100.00;99926.84;4950299;29;20031;-87
2022/04/21 05:08:15;;;;;;;25.33;14.05;;;;;;;9.70;100.00;99930.06;4952537;29;20043;-90
2022/04/21 05:10:41;;;;;;;22.13;13.63;;;;;;;9.62;100.00;99930.91;4932813;29;20037;-86
2022/04/21 05:13:10;;;;;;;25.67;14.60;;;;;;;9.62;100.00;99932.72;4948830;29;20407;-86
2022/04/21 05:15:35;;;;;;;19.67;13.70;;;;;;;9.63;100.00;99929.91;4963094;29;20062;-88
2022/04/21 05:18:01;;;;;;;23.95;14.00;;;;;;;9.52;100.00;99938.22;4963274;28;20080;-87
2022/04/21 05:20:33;;;;;;;20.50;13.48;;;;;;;9.64;100.00;99939.53;4962717;29;20042;-85
2022/04/21 05:23:06;;;;;;;;;;;;;;;9.84;100.00;99946.03;4964589;29;20151;-87
2022/04/21 05:25:36;;;;;;;20.85;13.25;;;;;;;9.84;100.00;99943.38;4946456;29;19922;-83
2022/04/21 05:28:02;;;;;;;20.80;13.45;;;;;;;9.86;100.00;99946.72;4962992;29;20032;-86
2022/04/21 05:33:15;;;;;;;20.65;12.95;;;;;;;9.92;100.00;99949.66;4946493;29;20126;-83
2022/04/21 05:35:42;;;;;;;17.33;12.73;;;;;;;9.84;100.00;99948.69;4963871;29;20458;-83
2022/04/21 05:38:15;;;;;;;18.30;12.52;;;;;;;10.04;100.00;99957.03;4948522;29;20663;-88
2022/04/21 05:40:44;;;;;;;;;;;;;;;9.84;100.00;99956.63;4965021;29;20039;-85
2022/04/21 05:43:15;;;;;;;24.63;13.40;;;;;;;9.73;100.00;99962.31;4965566;29;19914;-87
2022/04/21 05:45:42;;;;;;;23.17;12.35;;;;;;;9.80;100.00;99957.97;4931449;29;20043;-91
2022/04/21 05:48:15;;;;;;;18.50;12.80;;;;;;;9.73;100.00;99948.25;4930719;29;20110;-83
2022/04/21 05:50:49;;;;;;;18.45;13.05;;;;;;;9.57;100.00;99943.84;4968033;29;20113;-82
2022/04/21 05:53:24;;;;;;;23.85;13.48;;;;;;;9.55;100.00;99948.44;4934883;29;20047;-84
2022/04/21 05:55:54;;;;;;;23.83;14.13;;;;;;;9.36;100.00;99938.25;4946108;29;20395;-83
2022/04/21 05:58:22;;;;;;;22.60;13.57;;;;;;;9.68;100.00;99938.16;4947135;29;20070;-84
2022/04/21 06:00:49;;;;;;;17.55;13.35;;;;;;;9.61;100.00;99936.38;4967619;29;20039;-83
2022/04/21 06:03:23;;;;;;;18.77;13.15;;;;;;;9.82;100.00;99932.16;4936309;29;20490;-83
2022/04/21 06:05:49;;;;;;;20.17;13.57;;;;;;;9.79;100.00;99927.22;4951150;29;20055;-85
2022/04/21 06:08:15;;;;;;;20.98;13.07;;;;;;;9.96;100.00;99932.44;4966523;29;20158;-85
2022/04/21 06:13:25;;;;;;;18.55;12.05;;;;;;;9.83;100.00;99931.16;5012534;23;20062;-82
2022/04/21 06:16:10;;;;;;;14.57;11.80;;;;;;;10.04;100.00;99932.41;4976616;28;20126;-81
2022/04/21 06:18:37;;;;;;;17.63;12.27;;;;;;;9.84;100.00;99932.81;4992506;28;20070;-81
2022/04/21 06:21:23;;;;;;;18.92;12.40;;;;;;;9.84;100.00;99927.50;4995774;28;20049;-82
2022/04/21 06:23:55;;;;;;;21.52;12.48;;;;;;;9.67;100.00;99925.13;4994941;28;20015;-82
2022/04/21 06:27:17;;;;;;;20.77;12.70;;;;;;;9.82;100.00;99918.94;4995401;23;20051;-80
2022/04/21 06:29:52;;;;;;;16.83;12.07;;;;;;;9.90;100.00;99919.88;4974489;28;20057;-82
2022/04/21 06:32:44;;;;;;;18.58;12.77;;;;;;;9.82;100.00;99916.28;4974594;28;20042;-83
2022/04/21 06:35:16;;;;;;;18.42;12.25;;;;;;;9.79;100.00;99913.97;4974596;29;20589;-81
2022/04/21 06:38:00;;;;;;;24.05;12.15;;;;;;;9.58;100.00;99905.78;4975434;29;20054;-81
2022/04/21 06:49:50;;;;;;;26.15;11.60;;;;;;;9.89;100.00;99929.66;4970120;29;20047;-82
2022/04/21 06:55:44;;;;;;;15.25;10.88;;;;;;;9.69;100.00;99923.94;4946720;28;20070;-83
2022/04/21 06:58:15;;;;;;;15.30;9.82;;;;;;;9.73;100.00;99919.13;4979596;28;20116;-81
2022/04/21 07:03:23;;;;;;;16.35;10.85;;;;;;;9.70;100.00;99920.31;5210612;23;20034;-81
2022/04/21 07:11:24;;;;;;;13.80;10.80;;;;;;;9.41;100.00;99920.06;3990239;26;20194;-84
2022/04/21 07:16:36;;;;;;;13.17;7.27;;;;;;;9.59;100.00;99915.38;4530868;23;20070;-85
2022/04/21 07:19:01;;;;;;;22.25;11.57;;;;;;;9.47;100.00;99908.81;4939225;29;20385;-86
2022/04/21 07:21:27;;;;;;;18.33;11.35;;;;;;;9.60;100.00;99917.03;4938401;29;20035;-87
2022/04/21 07:23:53;;;;;;;15.65;10.35;;;;;;;9.55;100.00;99915.88;4956156;28;20046;-85
2022/04/21 07:26:20;;;;;;;19.80;12.43;;;;;;;9.43;100.00;99907.50;4974861;28;20035;-85
2022/04/21 07:28:45;;;;;;;17.10;11.48;;;;;;;9.56;100.00;99909.59;4974192;28;20038;-85
2022/04/21 07:31:11;;;;;;;21.35;11.70;;;;;;;9.70;100.00;99908.91;4975397;28;20054;-84
2022/04/21 07:33:37;;;;;;;20.40;10.50;;;;;;;9.51;100.00;99914.59;4974012;28;20031;-85
2022/04/21 07:36:03;;;;;;;20.85;11.38;;;;;;;9.62;100.00;99907.09;4975237;28;20031;-85
2022/04/21 07:38:29;;;;;;;19.50;11.65;;;;;;;9.42;100.00;99897.91;4974625;28;20033;-84
2022/04/21 07:40:54;;;;;;;17.15;11.23;;;;;;;9.39;100.00;99898.25;4951176;28;20403;-85
2022/04/21 07:43:20;;;;;;;20.45;11.88;;;;;;;9.36;100.00;99895.94;4940436;29;20031;-84
2022/04/21 07:45:46;;;;;;;21.42;10.90;;;;;;;9.46;100.00;99899.22;4940039;29;20040;-84
2022/04/21 07:48:12;;;;;;;19.02;11.02;;;;;;;9.47;100.00;99906.16;4940680;29;20046;-86
2022/04/21 07:50:42;;;;;;;17.77;11.65;;;;;;;9.50;100.00;99905.00;4941008;29;20480;-83
2022/04/21 07:53:13;;;;;;;19.52;11.85;;;;;;;9.39;100.00;99900.06;4941319;28;20063;-84
2022/04/21 07:55:40;;;;;;;15.18;10.40;;;;;;;9.40;100.00;99902.53;4943823;29;20051;-84
2022/04/21 07:58:06;;;;;;;18.13;10.43;;;;;;;9.52;100.00;99906.47;4960133;29;20108;-85
2022/04/21 08:00:32;;;;;;;15.77;10.57;;;;;;;9.62;100.00;99909.75;4959753;29;20035;-83
2022/04/21 08:02:58;;;;;;;21.75;11.38;;;;;;;9.40;100.00;99912.28;4959271;29;20066;-84
2022/04/21 08:05:23;;;;;;;17.88;11.23;;;;;;;9.46;100.00;99917.72;4960564;29;20035;-83
2022/04/21 08:07:49;;;;;;;16.92;12.07;;;;;;;9.69;100.00;99921.28;4943269;29;20557;-85
2022/04/21 08:10:15;;;;;;;17.65;11.85;;;;;;;9.72;100.00;99923.59;4960024;29;20039;-83
2022/04/21 08:12:43;;;;;;;24.88;12.80;;;;;;;9.60;100.00;99929.44;4941970;29;20035;-83
2022/04/21 08:15:11;;;;;;;16.90;11.15;;;;;;;9.62;100.00;99932.72;4944747;28;20035;-85
2022/04/21 08:17:38;;;;;;;16.02;11.43;;;;;;;9.52;100.00;99917.03;4960304;29;20032;-83
2022/04/21 08:20:14;;;;;;;18.75;10.52;;;;;;;9.60;100.00;99913.56;4960792;29;20070;-83
2022/04/21 08:22:44;;;;;;;16.70;10.77;;;;;;;9.66;100.00;99919.00;4941578;29;20046;-82
2022/04/21 08:33:22;;;;;;;13.73;10.07;;;;;;;9.65;100.00;99905.91;4960500;29;20592;-85
2022/04/21 08:35:51;;;;;;;15.95;10.13;;;;;;;9.63;100.00;99908.75;4956324;29;20055;-84
2022/04/21 08:38:18;;;;;;;21.63;10.20;;;;;;;9.68;100.00;99901.13;4934928;29;20031;-84
2022/04/21 08:40:51;;;;;;;18.02;10.38;;;;;;;9.60;100.00;99909.09;4957590;28;20476;-85
2022/04/21 08:43:17;;;;;;;18.42;9.90;;;;;;;9.70;100.00;99899.13;4926712;29;20127;-84
2022/04/21 08:45:44;;;;;;;18.98;10.30;;;;;;;9.65;100.00;99892.69;4910136;29;20079;-85
2022/04/21 08:48:11;;;;;;;19.45;11.55;;;;;;;9.43;100.00;99891.63;4924506;29;20059;-86
2022/04/21 08:50:38;;;;;;;19.95;11.52;;;;;;;9.51;100.00;99907.44;4942855;29;20046;-91
2022/04/21 08:53:05;;;;;;;18.60;11.57;;;;;;;9.50;100.00;99895.25;4924307;28;20054;-87
2022/04/21 08:55:32;;;;;;;17.10;11.88;;;;;;;9.47;100.00;99898.22;4978951;28;20041;-86
2022/04/21 08:57:58;;;;;;;20.13;11.93;;;;;;;9.62;100.00;99901.81;4978542;28;20062;-86
2022/04/21 09:00:24;;;;;;;21.02;11.82;;;;;;;9.57;100.00;99904.16;4966882;28;20031;-84
2022/04/21 09:02:50;;;;;;;16.38;11.98;;;;;;;9.65;100.00;99908.56;4979493;28;20449;-84
2022/04/21 09:05:16;;;;;;;19.17;12.50;;;;;;;9.57;100.00;99904.16;4975436;28;20038;-83
2022/04/21 09:07:47;;;;;;;20.15;12.90;;;;;;;9.75;100.00;99901.25;4975512;28;20034;-83
2022/04/21 09:10:14;;;;;;;18.52;12.90;;;;;;;9.76;100.00;99903.75;4975531;28;20134;-84
2022/04/21 09:12:44;;;;;;;24.92;13.75;;;;;;;9.88;100.00;99911.31;4976508;28;20035;-85
2022/04/21 09:15:15;;;;;;;20.17;13.25;;;;;;;9.88;100.00;99915.59;4975288;28;20050;-82
2022/04/21 09:17:43;;;;;;;23.63;13.30;;;;;;;9.69;100.00;99918.66;4959252;28;20045;-84
2022/04/21 09:20:10;;;;;;;18.65;12.57;;;;;;;9.73;100.00;99919.13;4975148;28;20035;-84
2022/04/21 09:22:40;;;;;;;20.67;12.32;;;;;;;9.77;100.00;99909.88;4976013;28;20121;-85
2022/04/21 09:25:06;;;;;;;16.73;12.77;;;;;;;9.86;100.00;99914.94;4976233;28;20077;-84
2022/04/21 09:27:38;;;;;;;19.75;12.45;;;;;;;10.17;100.00;99914.16;4976517;28;20119;-87
2022/04/21 09:30:04;;;;;;;21.55;13.57;;;;;;;10.11;100.00;99913.00;4976811;28;20046;-87
2022/04/21 09:32:30;;;;;;;20.55;12.07;;;;;;;10.15;100.00;99914.31;4964196;28;20038;-87
2022/04/21 09:34:57;;;;;;;23.02;13.73;;;;;;;10.12;100.00;99919.09;4948261;28;20063;-87
2022/04/21 09:37:22;;;;;;;19.80;12.95;;;;;;;10.06;100.00;99912.69;4943405;29;20038;-87
2022/04/21 09:39:52;;;;;;;17.40;13.07;;;;;;;10.13;100.00;99904.88;4940178;29;20043;-84
2022/04/21 09:42:28;;;;;;;19.08;12.63;;;;;;;10.05;100.00;99899.63;4919716;29;20414;-88
2022/04/21 09:47:55;;;;;;;17.70;13.02;;;;;;;10.20;100.00;99895.28;4960032;29;20490;-86
2022/04/21 09:50:25;;;;;;;20.73;13.18;;;;;;;10.08;100.00;99892.16;4959898;29;20042;-86
2022/04/21 09:52:54;;;;;;;22.20;12.55;;;;;;;10.24;100.00;99896.59;4945271;29;20047;-88
2022/04/21 09:55:38;;;;;;;22.08;13.65;;;;;;;10.28;100.00;99903.16;4924932;29;20527;-89
2022/04/21 09:58:06;;;;;;;25.38;14.80;;;;;;;10.32;100.00;99910.59;4942118;29;20108;-87
2022/04/21 10:00:35;;;;;;;22.40;14.35;;;;;;;10.42;100.00;99914.81;4941054;29;20122;-87
2022/04/21 10:03:05;;;;;;;19.02;14.15;;;;;;;10.43;100.00;99911.19;4975517;28;20042;-88
2022/04/21 10:05:32;;;;;;;23.05;13.93;;;;;;;10.36;100.00;99919.84;4977359;28;20035;-85
2022/04/21 10:08:04;;;;;;;24.85;15.55;;;;;;;10.24;100.00;99915.91;4976769;28;20049;-86
2022/04/21 10:10:31;;;;;;;24.73;15.70;;;;;;;10.23;100.00;99921.41;4943420;28;20043;-87
2022/04/21 10:12:59;;;;;;;23.90;16.80;;;;;;;10.16;100.00;99913.34;4975755;28;20034;-86
2022/04/21 10:15:26;;;;;;;25.52;16.15;;;;;;;10.12;100.00;99904.06;4977046;28;20506;-86
2022/04/21 10:17:52;;;;;;;27.23;16.60;;;;;;;10.13;100.00;99894.28;4976472;28;20093;-85
2022/04/21 10:20:22;;;;;;;26.35;17.92;;;;;;;10.12;100.00;99892.63;4960700;28;20039;-85
2022/04/21 10:22:49;;;;;;;22.52;16.88;;;;;;;10.35;100.00;99891.69;4943111;28;20054;-86
2022/04/21 10:25:15;;;;;;;24.20;16.67;;;;;;;10.32;100.00;99899.16;4959658;28;20046;-87
2022/04/21 10:27:49;;;;;;;28.20;19.13;;;;;;;10.36;100.00;99900.47;4976279;28;20029;-88
2022/04/21 10:30:15;;;;;;;27.40;18.65;;;;;;;10.29;100.00;99900.34;4947066;29;20039;-86
2022/04/21 10:32:49;;;;;;;27.38;19.27;;;;;;;10.34;100.00;99897.19;4937131;29;20038;-86
2022/04/21 10:35:20;;;;;;;22.63;17.08;;;;;;;10.36;100.00;99900.47;4937751;29;20035;-85
2022/04/21 10:37:46;;;;;;;27.27;19.38;;;;;;;10.43;100.00;99909.38;4938392;29;20475;-87
2022/04/21 10:40:15;;;;;;;30.27;19.90;;;;;;;10.40;100.00;99907.06;4939176;29;20038;-89
2022/04/21 10:42:52;;;;;;;28.77;19.75;;;;;;;10.45;100.00;99899.41;4952156;28;20050;-89
2022/04/21 10:45:31;;;;;;;25.63;18.08;;;;;;;10.39;100.00;99900.13;4959367;29;20157;-88
2022/04/21 10:48:06;;;;;;;23.10;17.27;;;;;;;10.51;100.00;99904.00;4958129;29;20039;-84
2022/04/21 10:50:34;;;;;;;32.95;20.65;;;;;;;10.46;100.00;99906.38;4946722;28;20069;-86
2022/04/21 10:58:36;;;;;;;23.92;18.50;;;;;;;10.53;100.00;99891.41;4961499;29;20085;-87
2022/04/21 11:01:22;;;;;;;27.77;19.35;;;;;;;10.64;100.00;99888.31;4944577;29;20035;-88
2022/04/21 11:04:17;;;;;;;24.90;18.60;;;;;;;10.87;100.00;99883.81;4966107;29;20054;-88
2022/04/21 11:06:48;;;;;;;25.08;18.25;;;;;;;10.83;100.00;99871.94;4953034;29;20054;-88
2022/04/21 11:09:53;;;;;;;28.33;19.23;;;;;;;10.70;100.00;99877.03;4952535;29;20046;-88
2022/04/21 11:12:50;;;;;;;25.48;18.73;;;;;;;10.89;100.00;99871.22;4968750;29;20050;-89
2022/04/21 11:15:54;;;;;;;25.45;17.42;;;;;;;10.88;100.00;99874.88;4949811;29;20055;-92
2022/04/21 11:18:21;;;;;;;;;;;;;;;10.85;100.00;99869.94;4950748;29;20039;-89
2022/04/21 11:20:49;;;;;;;33.10;18.00;;;;;;;10.98;100.00;99876.44;4952196;29;20327;-86
2022/04/21 11:23:45;;;;;;;28.20;18.33;;;;;;;11.00;100.00;99867.31;4941271;29;20035;-88
2022/04/21 11:26:11;;;;;;;25.00;16.55;;;;;;;11.31;100.00;99875.09;4942012;29;20044;-87
2022/04/21 11:28:46;;;;;;;23.95;16.30;;;;;;;11.22;100.00;99863.78;4942258;29;20103;-86
2022/04/21 11:31:13;;;;;;;20.85;15.77;;;;;;;11.50;100.00;99863.94;4924876;29;20031;-88
2022/04/21 11:33:40;;;;;;;22.42;15.60;;;;;;;11.40;100.00;99858.91;4942086;29;20035;-86
2022/04/21 11:36:08;;;;;;;30.63;16.75;;;;;;;11.22;100.00;99850.50;4925541;29;20498;-89
2022/04/21 11:38:42;;;;;;;21.58;15.55;;;;;;;11.33;100.00;99854.53;4943417;29;20039;-88
2022/04/21 11:41:12;;;;;;;26.80;17.38;;;;;;;11.09;100.00;99854.78;4915021;29;20036;-88
2022/04/21 11:43:48;;;;;;;23.88;17.85;;;;;;;11.05;100.00;99842.91;4942213;29;20035;-86
2022/04/21 11:46:39;;;;;;;31.30;17.98;;;;;;;11.18;100.00;99848.38;4947863;29;20486;-88
2022/04/21 11:49:13;;;;;;;;;;;;;;;11.32;100.00;99859.00;4964697;29;20039;-89
2022/04/21 11:51:56;;;;;;;30.13;16.52;;;;;;;11.31;100.00;99853.88;4944560;29;20343;-86
2022/04/21 11:54:31;;;;;;;23.67;15.27;;;;;;;11.37;100.00;99861.09;4953933;29;20483;-89
2022/04/21 11:57:48;;;;;;;27.95;15.30;;;;;;;11.26;100.00;99861.56;4937774;29;20067;-90
2022/04/21 12:06:52;;;;;;;25.80;14.60;;;;;;;11.31;100.00;99860.00;4939623;29;20507;-87
2022/04/21 12:09:29;;;;;;;24.42;14.45;;;;;;;11.21;100.00;99861.28;4943717;29;20039;-88
2022/04/21 12:12:00;;;;;;;24.95;15.85;;;;;;;11.40;100.00;99858.91;4941601;29;20444;-87
2022/04/21 12:14:27;;;;;;;22.23;14.43;;;;;;;11.32;100.00;99866.16;4941145;29;20106;-88
2022/04/21 12:17:00;;;;;;;24.60;14.73;;;;;;;11.25;100.00;99870.53;4940571;29;20074;-87
2022/04/21 12:19:44;;;;;;;20.15;13.30;;;;;;;11.43;100.00;99863.03;4943115;29;20032;-87
2022/04/21 12:22:12;;;;;;;18.30;12.95;;;;;;;11.41;100.00;99863.22;4939252;29;20066;-88
2022/04/21 12:24:38;;;;;;;18.02;12.57;;;;;;;11.36;100.00;99862.13;4945603;29;20040;-89
2022/04/21 12:27:24;;;;;;;20.40;13.82;;;;;;;11.38;100.00;99854.81;4946432;29;20120;-89
2022/04/21 12:29:52;;;;;;;18.35;12.98;;;;;;;11.42;100.00;99861.38;4965578;29;20031;-89
2022/04/21 12:32:32;;;;;;;30.15;17.17;;;;;;;11.60;100.00;99848.56;4947650;29;20048;-90
2022/04/21 12:35:01;;;;;;;23.52;16.00;;;;;;;11.40;100.00;99858.13;4951285;29;20039;-90
2022/04/21 12:37:36;;;;;;;27.77;17.60;;;;;;;11.27;100.00;99847.28;4967183;29;20074;-89
2022/04/21 12:40:07;;;;;;;28.70;14.18;;;;;;;11.15;100.00;99849.59;4951276;29;20054;-87
2022/04/21 12:42:53;;;;;;;26.80;15.55;;;;;;;11.12;100.00;99843.81;4939721;29;20054;-90